Reading, Jamaica
Current Conditions -  °F | °C
As of 10:00 PM on Saturday 25 Oct 2014 (Local Time) from MKJS Reporting Station
Rain Showers Rain Showers  
Wind Chill: 81°   Ceiling: 2200
Heat Index: 87°   Visibility: 6mi
Dew Point: 77°   Wind: 2mph
Humidity: 89%   Direction: NA
Pressure: 29.85"   Gusts: NA
Location:  18.45°N, 77.95°W
Report Text: MKJS 260300Z VRB02KT 9999 -SHRA BKN022 27/25 Q1011
Loading
Personal Weather Stations






























Interactive Weather Map New forecast layout! Learn more

10-Day Weather Forecast

Advertisements
Track Severe Weather on mobile